createdAt,value
2022-11-15T00:01:18.088Z,100615.89
2022-11-15T00:06:20.883Z,100612.48
2022-11-15T00:11:23.632Z,100600.83
2022-11-15T00:16:26.798Z,100596.61
2022-11-15T00:21:29.516Z,100586.73
2022-11-15T00:26:32.222Z,100580.44
2022-11-15T00:31:35.058Z,100577.21
2022-11-15T00:36:37.792Z,100567.52
2022-11-15T00:41:40.529Z,100560.27
2022-11-15T00:46:43.270Z,100552.86
2022-11-15T00:51:45.991Z,100548.19
2022-11-15T00:56:48.725Z,100542.83
2022-11-15T01:01:51.429Z,100543.23
2022-11-15T01:06:54.556Z,100533.67
2022-11-15T01:11:57.297Z,100524.48
2022-11-15T01:17:00.023Z,100520.73
2022-11-15T01:22:02.761Z,100516.79
2022-11-15T01:27:05.935Z,100510.84
2022-11-15T01:32:08.692Z,100505.33
2022-11-15T01:37:11.513Z,100503.02
2022-11-15T01:42:14.670Z,100496.98
2022-11-15T01:47:22.425Z,100490.69
2022-11-15T01:52:27.643Z,100480.24
2022-11-15T01:57:30.992Z,100476.67
2022-11-15T02:02:34.884Z,100469.39
2022-11-15T02:07:37.860Z,100462.04
2022-11-15T02:12:41.493Z,100458.71
2022-11-15T02:17:59.437Z,100452.80
2022-11-15T02:23:02.103Z,100444.79
2022-11-15T02:28:34.758Z,100438.70
2022-11-15T02:34:06.553Z,100440.31
2022-11-15T02:39:32.505Z,100436.47
2022-11-15T02:44:39.436Z,100422.85
2022-11-15T02:49:47.466Z,100419.00
2022-11-15T02:54:56.529Z,100413.95
2022-11-15T03:00:18.798Z,100409.55
2022-11-15T03:05:57.240Z,100407.55
2022-11-15T03:11:17.265Z,100400.77
2022-11-15T03:16:26.226Z,100386.71
2022-11-15T03:21:30.949Z,100379.67
2022-11-15T03:26:36.500Z,100377.95
2022-11-15T03:31:50.332Z,100375.27
2022-11-15T03:36:54.279Z,100366.55
2022-11-15T03:42:25.254Z,100362.11
2022-11-15T03:47:38.186Z,100355.05
2022-11-15T03:52:42.175Z,100353.38
2022-11-15T03:57:45.441Z,100354.38
2022-11-15T04:02:48.033Z,100346.31
2022-11-15T04:07:50.837Z,100344.66
2022-11-15T04:12:53.947Z,100337.35
2022-11-15T04:17:58.384Z,100336.95
2022-11-15T04:23:21.227Z,100331.01
2022-11-15T04:28:23.947Z,100327.34
2022-11-15T04:33:26.848Z,100326.98
2022-11-15T04:38:29.533Z,100328.98
2022-11-15T04:43:32.582Z,100322.02
2022-11-15T04:48:35.647Z,100316.91
2022-11-15T04:53:38.391Z,100316.95
2022-11-15T04:58:41.198Z,100316.48
2022-11-15T05:04:03.664Z,100317.05
2022-11-15T05:09:06.442Z,100316.56
2022-11-15T05:14:09.342Z,100323.30
2022-11-15T05:19:12.111Z,100320.79
2022-11-15T05:24:14.838Z,100313.78
2022-11-15T05:29:17.962Z,100305.13
2022-11-15T05:34:22.714Z,100298.55
2022-11-15T05:39:27.025Z,100297.73
2022-11-15T05:44:29.850Z,100299.52
2022-11-15T05:49:37.619Z,100298.05
2022-11-15T05:54:40.845Z,100297.34
2022-11-15T05:59:44.595Z,100298.48
2022-11-15T06:04:47.933Z,100294.14
2022-11-15T06:09:50.669Z,100302.64
2022-11-15T06:14:53.377Z,100307.41
2022-11-15T06:19:56.111Z,100305.15
2022-11-15T06:25:04.049Z,100301.39
2022-11-15T06:30:08.585Z,100296.20
2022-11-15T06:35:11.207Z,100294.73
2022-11-15T06:40:13.991Z,100296.11
2022-11-15T06:45:16.858Z,100300.20
2022-11-15T06:50:20.403Z,100304.95
2022-11-15T06:55:23.257Z,100308.29
2022-11-15T07:00:26.232Z,100311.42
2022-11-15T07:05:31.743Z,100313.67
2022-11-15T07:10:34.613Z,100316.02
2022-11-15T07:15:37.685Z,100317.96
2022-11-15T07:20:53.852Z,100317.30
2022-11-15T07:26:19.644Z,100305.70
2022-11-15T07:31:24.740Z,100308.45
2022-11-15T07:36:32.565Z,100302.55
2022-11-15T07:41:36.103Z,100298.35
2022-11-15T07:46:42.331Z,100292.23
2022-11-15T07:51:49.646Z,100295.60
2022-11-15T07:57:17.160Z,100285.29
2022-11-15T08:02:31.728Z,100276.69
2022-11-15T08:07:44.805Z,100288.64
2022-11-15T08:13:11.949Z,100287.39
2022-11-15T08:18:17.747Z,100283.42
2022-11-15T08:28:47.676Z,100275.42
2022-11-15T08:34:13.708Z,100280.37
2022-11-15T08:44:54.398Z,100275.27
2022-11-15T08:50:00.676Z,100269.52
2022-11-15T09:00:58.072Z,100270.95
2022-11-15T09:06:07.640Z,100279.20
2022-11-15T09:11:29.377Z,100282.50
2022-11-15T09:16:51.045Z,100284.90
2022-11-15T09:22:29.006Z,100287.73
2022-11-15T09:27:44.352Z,100275.17
2022-11-15T09:33:00.812Z,100264.04
2022-11-15T09:38:18.023Z,100261.40
2022-11-15T09:43:35.419Z,100259.27
2022-11-15T09:48:55.506Z,100256.58
2022-11-15T09:59:56.811Z,100249.23
2022-11-15T10:05:05.870Z,100243.48
2022-11-15T10:10:32.226Z,100247.11
2022-11-15T10:15:54.709Z,100243.30
2022-11-15T10:27:36.554Z,100231.05
2022-11-15T10:32:41.696Z,100233.20
2022-11-15T10:37:44.553Z,100229.33
2022-11-15T10:42:48.297Z,100228.13
2022-11-15T10:47:51.095Z,100231.85
2022-11-15T10:52:54.678Z,100230.84
2022-11-15T10:58:06.781Z,100231.64
2022-11-15T11:03:38.624Z,100234.58
2022-11-15T11:08:54.375Z,100226.05
2022-11-15T11:14:13.365Z,100229.41
2022-11-15T11:19:36.477Z,100221.79
2022-11-15T11:24:57.873Z,100217.92
2022-11-15T11:30:53.017Z,100205.78
2022-11-15T11:36:24.796Z,100199.35
2022-11-15T11:41:54.337Z,100194.78
2022-11-15T11:47:08.723Z,100193.11
2022-11-15T11:52:20.827Z,100188.40
2022-11-15T11:57:34.033Z,100182.30
2022-11-15T12:02:42.692Z,100169.91
2022-11-15T12:07:47.836Z,100164.23
2022-11-15T12:12:51.681Z,100159.59
2022-11-15T12:18:01.568Z,100164.44
2022-11-15T12:23:29.886Z,100168.01
2022-11-15T12:29:06.395Z,100172.38
2022-11-15T12:34:43.541Z,100167.20
2022-11-15T12:40:04.816Z,100158.92
2022-11-15T12:45:29.046Z,100163.70
2022-11-15T12:50:54.691Z,100155.67
2022-11-15T12:56:12.630Z,100157.36
2022-11-15T13:01:34.306Z,100157.42
2022-11-15T13:06:44.964Z,100154.59
2022-11-15T13:11:51.062Z,100155.65
2022-11-15T13:17:00.745Z,100146.41
2022-11-15T13:22:28.392Z,100147.84
2022-11-15T13:27:32.289Z,100151.63
2022-11-15T13:32:35.250Z,100144.35
2022-11-15T13:37:38.107Z,100137.22
2022-11-15T13:42:45.638Z,100137.30
2022-11-15T13:47:57.358Z,100136.91
2022-11-15T13:53:03.827Z,100137.67
2022-11-15T13:58:07.390Z,100130.18
2022-11-15T14:03:26.794Z,100128.63
2022-11-15T14:08:29.558Z,100128.46
2022-11-15T14:13:32.974Z,100125.71
2022-11-15T14:18:59.964Z,100119.91
2022-11-15T14:24:21.700Z,100116.17
2022-11-15T14:29:25.710Z,100107.52
2022-11-15T14:34:28.457Z,100110.36
2022-11-15T14:39:38.457Z,100107.33
2022-11-15T14:44:44.856Z,100106.45
2022-11-15T14:49:48.641Z,100096.27
2022-11-15T14:54:51.373Z,100100.33
2022-11-15T14:59:54.341Z,100088.58
2022-11-15T15:04:59.076Z,100092.16
2022-11-15T15:10:37.916Z,100084.69
2022-11-15T15:15:33.459Z,100084.31
2022-11-15T15:20:39.276Z,100082.64
2022-11-15T15:25:43.054Z,100077.64
2022-11-15T15:30:45.749Z,100079.64
2022-11-15T15:35:48.567Z,100078.75
2022-11-15T15:40:51.787Z,100076.61
2022-11-15T15:45:54.765Z,100078.99
2022-11-15T15:50:57.490Z,100077.95
2022-11-15T15:56:00.236Z,100068.80
2022-11-15T16:01:03.655Z,100067.40
2022-11-15T16:06:40.401Z,100066.77
2022-11-15T16:11:45.630Z,100068.96
2022-11-15T16:16:48.380Z,100074.44
2022-11-15T16:21:53.084Z,100077.15
2022-11-15T16:26:55.922Z,100078.70
2022-11-15T16:31:58.706Z,100079.98
2022-11-15T16:37:01.609Z,100082.27
2022-11-15T16:42:04.481Z,100075.42
2022-11-15T16:47:17.634Z,100072.10
2022-11-15T16:52:21.479Z,100071.59
2022-11-15T16:57:24.564Z,100071.55
2022-11-15T17:02:27.290Z,100067.40
2022-11-15T17:07:30.157Z,100068.71
2022-11-15T17:12:34.641Z,100065.36
2022-11-15T17:17:37.374Z,100062.83
2022-11-15T17:22:40.109Z,100059.67
2022-11-15T17:27:43.184Z,100055.52
2022-11-15T17:32:47.930Z,100050.94
2022-11-15T17:37:50.806Z,100056.20
2022-11-15T17:42:53.495Z,100063.81
2022-11-15T17:47:56.257Z,100064.69
2022-11-15T17:52:59.958Z,100071.72
2022-11-15T17:58:02.679Z,100072.84
2022-11-15T18:03:05.384Z,100069.40
2022-11-15T18:08:12.735Z,100064.36
2022-11-15T18:13:18.055Z,100060.23
2022-11-15T18:18:20.752Z,100054.16
2022-11-15T18:23:23.431Z,100055.13
2022-11-15T18:28:34.793Z,100058.60
2022-11-15T18:33:38.570Z,100065.65
2022-11-15T18:38:41.893Z,100068.79
2022-11-15T18:43:45.153Z,100068.59
2022-11-15T18:48:50.544Z,100064.34
2022-11-15T18:53:55.371Z,100064.20
2022-11-15T18:59:00.493Z,100065.12
2022-11-15T19:04:10.353Z,100066.19
2022-11-15T19:09:16.125Z,100061.89
2022-11-15T19:14:20.199Z,100061.04
2022-11-15T19:19:26.001Z,100050.25
2022-11-15T19:24:29.990Z,100036.01
2022-11-15T19:29:32.740Z,100037.29
2022-11-15T19:34:35.495Z,100037.27
2022-11-15T19:39:41.079Z,100038.54
2022-11-15T19:44:44.274Z,100040.71
2022-11-15T19:49:47.019Z,100038.61
2022-11-15T19:54:50.247Z,100040.91
2022-11-15T19:59:52.942Z,100027.54
2022-11-15T20:04:55.702Z,100031.66
2022-11-15T20:09:58.986Z,100026.25
2022-11-15T20:15:01.786Z,100021.29
2022-11-15T20:20:04.947Z,100021.48
2022-11-15T20:25:08.000Z,100014.26
2022-11-15T20:30:11.055Z,100018.73
2022-11-15T20:35:13.962Z,100023.84
2022-11-15T20:40:17.026Z,100025.64
2022-11-15T20:45:20.067Z,100034.22
2022-11-15T20:50:43.527Z,100034.80
2022-11-15T20:55:49.564Z,100028.19
2022-11-15T21:00:55.796Z,100019.09
2022-11-15T21:05:58.861Z,100012.10
2022-11-15T21:11:20.202Z,100005.61
2022-11-15T21:16:23.419Z,100008.44
2022-11-15T21:21:26.039Z,100012.25
2022-11-15T21:26:28.852Z,100013.04
2022-11-15T21:31:32.153Z,100010.44
2022-11-15T21:36:34.911Z,100010.73
2022-11-15T21:41:37.720Z,99999.87
2022-11-15T21:46:40.493Z,99992.21
2022-11-15T21:51:43.600Z,99993.99
2022-11-15T21:56:46.350Z,99991.10
2022-11-15T22:02:07.873Z,99981.95
2022-11-15T22:07:10.756Z,99982.83
2022-11-15T22:12:13.714Z,99975.83
2022-11-15T22:17:16.676Z,99967.05
2022-11-15T22:22:19.546Z,99977.55
2022-11-15T22:27:22.466Z,99980.38
2022-11-15T22:32:25.344Z,99980.50
2022-11-15T22:37:28.255Z,99980.39
2022-11-15T22:42:32.433Z,99971.56
2022-11-15T22:47:35.324Z,99973.42
2022-11-15T22:52:38.155Z,99970.34
2022-11-15T22:57:41.136Z,99972.96
2022-11-15T23:02:44.005Z,99967.70
2022-11-15T23:07:46.887Z,99953.25
2022-11-15T23:13:08.467Z,99949.25
2022-11-15T23:18:11.364Z,99947.14
2022-11-15T23:23:14.299Z,99940.38
2022-11-15T23:28:17.200Z,99935.20
2022-11-15T23:33:38.700Z,99939.16
2022-11-15T23:38:41.622Z,99936.02
2022-11-15T23:43:44.522Z,99932.48
2022-11-15T23:48:47.639Z,99924.63
2022-11-15T23:53:50.737Z,99919.17
2022-11-15T23:58:53.902Z,99913.57
